sensor_id;sensor_type;location;lat;lon;timestamp;pressure;altitude;pressure_sealevel;temperature;humidity
61761;BME280;47664;51.660;-0.100;2023-04-07T00:01:39;101128.53;;;5.70;57.91
61761;BME280;47664;51.660;-0.100;2023-04-07T00:04:06;101127.10;;;5.43;58.36
61761;BME280;47664;51.660;-0.100;2023-04-07T00:06:34;101129.36;;;5.57;57.94
61761;BME280;47664;51.660;-0.100;2023-04-07T00:09:01;101133.02;;;5.69;58.19
61761;BME280;47664;51.660;-0.100;2023-04-07T00:11:28;101133.99;;;5.24;59.45
61761;BME280;47664;51.660;-0.100;2023-04-07T00:13:55;101134.80;;;5.54;59.45
61761;BME280;47664;51.660;-0.100;2023-04-07T00:16:23;101140.67;;;4.66;60.04
61761;BME280;47664;51.660;-0.100;2023-04-07T00:18:50;101136.44;;;5.16;60.09
61761;BME280;47664;51.660;-0.100;2023-04-07T00:21:17;101139.13;;;4.82;60.07
61761;BME280;47664;51.660;-0.100;2023-04-07T00:23:44;101145.54;;;5.23;60.30
61761;BME280;47664;51.660;-0.100;2023-04-07T00:26:12;101142.32;;;4.51;60.10
61761;BME280;47664;51.660;-0.100;2023-04-07T00:28:39;101141.40;;;5.22;59.59
61761;BME280;47664;51.660;-0.100;2023-04-07T00:31:07;101145.29;;;4.77;59.84
61761;BME280;47664;51.660;-0.100;2023-04-07T00:33:34;101149.26;;;4.95;60.78
61761;BME280;47664;51.660;-0.100;2023-04-07T00:36:01;101151.61;;;5.17;60.69
61761;BME280;47664;51.660;-0.100;2023-04-07T00:38:28;101147.86;;;5.07;60.98
61761;BME280;47664;51.660;-0.100;2023-04-07T00:40:57;101149.41;;;5.45;60.44
61761;BME280;47664;51.660;-0.100;2023-04-07T00:43:24;101149.66;;;5.10;60.11
61761;BME280;47664;51.660;-0.100;2023-04-07T00:45:51;101151.89;;;5.11;60.45
61761;BME280;47664;51.660;-0.100;2023-04-07T00:48:19;101150.94;;;5.01;61.45
61761;BME280;47664;51.660;-0.100;2023-04-07T00:50:45;101152.13;;;5.01;61.77
61761;BME280;47664;51.660;-0.100;2023-04-07T00:53:12;101155.54;;;5.15;61.90
61761;BME280;47664;51.660;-0.100;2023-04-07T00:55:39;101157.87;;;5.06;62.01
61761;BME280;47664;51.660;-0.100;2023-04-07T00:58:07;101158.46;;;4.96;62.12
61761;BME280;47664;51.660;-0.100;2023-04-07T01:00:40;101159.87;;;5.29;62.19
61761;BME280;47664;51.660;-0.100;2023-04-07T01:03:15;101163.54;;;5.45;62.14
61761;BME280;47664;51.660;-0.100;2023-04-07T01:05:49;101161.93;;;5.10;61.62
61761;BME280;47664;51.660;-0.100;2023-04-07T01:08:21;101163.54;;;5.29;61.68
61761;BME280;47664;51.660;-0.100;2023-04-07T01:10:52;101163.18;;;5.30;61.41
61761;BME280;47664;51.660;-0.100;2023-04-07T01:13:27;101165.09;;;5.20;61.78
61761;BME280;47664;51.660;-0.100;2023-04-07T01:15:59;101171.16;;;5.33;61.05
61761;BME280;47664;51.660;-0.100;2023-04-07T01:18:31;101166.31;;;5.39;61.01
61761;BME280;47664;51.660;-0.100;2023-04-07T01:21:02;101165.94;;;5.40;61.27
61761;BME280;47664;51.660;-0.100;2023-04-07T01:23:40;101168.43;;;5.40;61.01
61761;BME280;47664;51.660;-0.100;2023-04-07T01:26:19;101167.35;;;5.35;61.21
61761;BME280;47664;51.660;-0.100;2023-04-07T01:29:26;101171.61;;;5.20;61.39
61761;BME280;47664;51.660;-0.100;2023-04-07T01:31:54;101170.36;;;5.40;60.82
61761;BME280;47664;51.660;-0.100;2023-04-07T01:34:23;101169.59;;;5.07;60.38
61761;BME280;47664;51.660;-0.100;2023-04-07T01:36:52;101169.21;;;5.15;60.68
61761;BME280;47664;51.660;-0.100;2023-04-07T01:39:20;101167.79;;;5.29;60.43
61761;BME280;47664;51.660;-0.100;2023-04-07T01:41:48;101168.52;;;5.28;60.17
61761;BME280;47664;51.660;-0.100;2023-04-07T01:44:16;101166.21;;;4.93;60.03
61761;BME280;47664;51.660;-0.100;2023-04-07T01:46:44;101167.01;;;5.75;60.32
61761;BME280;47664;51.660;-0.100;2023-04-07T01:49:12;101168.99;;;5.02;60.79
61761;BME280;47664;51.660;-0.100;2023-04-07T01:51:39;101171.09;;;5.44;60.64
61761;BME280;47664;51.660;-0.100;2023-04-07T01:54:08;101175.48;;;5.07;59.65
61761;BME280;47664;51.660;-0.100;2023-04-07T01:56:35;101173.09;;;5.60;59.62
61761;BME280;47664;51.660;-0.100;2023-04-07T01:59:03;101173.45;;;5.54;60.05
61761;BME280;47664;51.660;-0.100;2023-04-07T02:01:31;101178.04;;;5.79;59.60
61761;BME280;47664;51.660;-0.100;2023-04-07T02:04:04;101183.35;;;6.28;58.87
61761;BME280;47664;51.660;-0.100;2023-04-07T02:06:36;101179.49;;;6.08;58.88
61761;BME280;47664;51.660;-0.100;2023-04-07T02:09:07;101175.58;;;5.47;60.02
61761;BME280;47664;51.660;-0.100;2023-04-07T02:11:37;101178.99;;;5.47;60.00
61761;BME280;47664;51.660;-0.100;2023-04-07T02:14:07;101181.52;;;5.93;59.77
61761;BME280;47664;51.660;-0.100;2023-04-07T02:16:36;101185.24;;;5.52;59.62
61761;BME280;47664;51.660;-0.100;2023-04-07T02:19:04;101184.66;;;5.67;60.12
61761;BME280;47664;51.660;-0.100;2023-04-07T02:21:33;101194.21;;;5.10;61.41
61761;BME280;47664;51.660;-0.100;2023-04-07T02:24:00;101195.09;;;5.45;61.40
61761;BME280;47664;51.660;-0.100;2023-04-07T02:26:31;101194.86;;;4.95;61.94
61761;BME280;47664;51.660;-0.100;2023-04-07T02:28:58;101191.59;;;5.24;61.86
61761;BME280;47664;51.660;-0.100;2023-04-07T02:31:25;101195.87;;;4.89;61.97
61761;BME280;47664;51.660;-0.100;2023-04-07T02:33:52;101193.84;;;5.23;61.36
61761;BME280;47664;51.660;-0.100;2023-04-07T02:36:20;101199.07;;;4.99;61.81
61761;BME280;47664;51.660;-0.100;2023-04-07T02:38:47;101193.00;;;4.84;62.14
61761;BME280;47664;51.660;-0.100;2023-04-07T02:41:15;101191.97;;;4.53;61.76
61761;BME280;47664;51.660;-0.100;2023-04-07T02:43:42;101192.21;;;5.09;62.07
61761;BME280;47664;51.660;-0.100;2023-04-07T02:46:09;101196.63;;;4.68;61.83
61761;BME280;47664;51.660;-0.100;2023-04-07T02:48:37;101196.92;;;4.80;62.48
61761;BME280;47664;51.660;-0.100;2023-04-07T02:51:04;101200.34;;;5.32;62.56
61761;BME280;47664;51.660;-0.100;2023-04-07T02:53:32;101200.38;;;4.98;62.35
61761;BME280;47664;51.660;-0.100;2023-04-07T02:55:58;101202.48;;;4.98;62.74
61761;BME280;47664;51.660;-0.100;2023-04-07T02:58:25;101201.09;;;4.34;63.64
61761;BME280;47664;51.660;-0.100;2023-04-07T03:00:53;101200.41;;;4.90;63.13
61761;BME280;47664;51.660;-0.100;2023-04-07T03:03:20;101202.56;;;4.33;63.36
61761;BME280;47664;51.660;-0.100;2023-04-07T03:05:47;101205.43;;;4.83;62.79
61761;BME280;47664;51.660;-0.100;2023-04-07T03:08:14;101207.28;;;4.10;62.86
61761;BME280;47664;51.660;-0.100;2023-04-07T03:10:41;101208.05;;;5.01;62.55
61761;BME280;47664;51.660;-0.100;2023-04-07T03:13:08;101209.60;;;4.62;62.29
61761;BME280;47664;51.660;-0.100;2023-04-07T03:15:36;101214.66;;;4.99;62.01
61761;BME280;47664;51.660;-0.100;2023-04-07T03:18:03;101217.57;;;5.01;62.46
61761;BME280;47664;51.660;-0.100;2023-04-07T03:20:30;101220.93;;;4.96;61.96
61761;BME280;47664;51.660;-0.100;2023-04-07T03:22:57;101218.18;;;5.51;61.74
61761;BME280;47664;51.660;-0.100;2023-04-07T03:25:24;101221.73;;;4.91;62.47
61761;BME280;47664;51.660;-0.100;2023-04-07T03:27:52;101219.40;;;5.28;61.85
61761;BME280;47664;51.660;-0.100;2023-04-07T03:30:19;101219.06;;;5.06;61.45
61761;BME280;47664;51.660;-0.100;2023-04-07T03:32:46;101217.84;;;5.50;61.47
61761;BME280;47664;51.660;-0.100;2023-04-07T03:35:13;101219.66;;;4.82;61.99
61761;BME280;47664;51.660;-0.100;2023-04-07T03:37:40;101218.43;;;5.41;62.25
61761;BME280;47664;51.660;-0.100;2023-04-07T03:40:08;101220.95;;;5.16;61.30
61761;BME280;47664;51.660;-0.100;2023-04-07T03:42:36;101222.39;;;5.47;61.72
61761;BME280;47664;51.660;-0.100;2023-04-07T03:45:04;101224.58;;;5.73;61.00
61761;BME280;47664;51.660;-0.100;2023-04-07T03:47:31;101227.42;;;5.54;61.13
61761;BME280;47664;51.660;-0.100;2023-04-07T03:49:58;101226.24;;;5.94;61.53
61761;BME280;47664;51.660;-0.100;2023-04-07T03:52:25;101225.76;;;5.57;60.69
61761;BME280;47664;51.660;-0.100;2023-04-07T03:54:52;101225.16;;;5.73;60.35
61761;BME280;47664;51.660;-0.100;2023-04-07T03:57:19;101224.43;;;4.81;61.20
61761;BME280;47664;51.660;-0.100;2023-04-07T03:59:46;101219.78;;;5.52;61.64
61761;BME280;47664;51.660;-0.100;2023-04-07T04:02:14;101219.06;;;4.61;61.80
61761;BME280;47664;51.660;-0.100;2023-04-07T04:04:41;101222.12;;;5.52;61.42
61761;BME280;47664;51.660;-0.100;2023-04-07T04:07:08;101224.55;;;5.07;60.77
61761;BME280;47664;51.660;-0.100;2023-04-07T04:09:36;101226.83;;;5.81;60.30
61761;BME280;47664;51.660;-0.100;2023-04-07T04:12:05;101229.40;;;5.96;59.72
61761;BME280;47664;51.660;-0.100;2023-04-07T04:14:32;101235.09;;;6.01;58.95
61761;BME280;47664;51.660;-0.100;2023-04-07T04:16:59;101240.64;;;6.14;59.14
61761;BME280;47664;51.660;-0.100;2023-04-07T04:19:26;101242.11;;;5.62;59.42
61761;BME280;47664;51.660;-0.100;2023-04-07T04:21:53;101241.21;;;5.82;59.42
61761;BME280;47664;51.660;-0.100;2023-04-07T04:24:21;101239.89;;;5.96;58.81
61761;BME280;47664;51.660;-0.100;2023-04-07T04:26:48;101239.15;;;6.18;58.56
61761;BME280;47664;51.660;-0.100;2023-04-07T04:29:15;101239.71;;;5.86;57.90
61761;BME280;47664;51.660;-0.100;2023-04-07T04:31:42;101236.98;;;6.15;58.33
61761;BME280;47664;51.660;-0.100;2023-04-07T04:34:09;101235.75;;;6.70;57.58
61761;BME280;47664;51.660;-0.100;2023-04-07T04:36:36;101235.73;;;6.00;58.36
61761;BME280;47664;51.660;-0.100;2023-04-07T04:39:05;101239.88;;;6.39;58.67
61761;BME280;47664;51.660;-0.100;2023-04-07T04:41:32;101246.96;;;6.17;58.50
61761;BME280;47664;51.660;-0.100;2023-04-07T04:43:59;101248.30;;;5.98;59.18
61761;BME280;47664;51.660;-0.100;2023-04-07T04:46:26;101250.59;;;5.77;60.20
61761;BME280;47664;51.660;-0.100;2023-04-07T04:48:53;101248.68;;;5.91;60.10
61761;BME280;47664;51.660;-0.100;2023-04-07T04:51:20;101250.98;;;5.79;59.64
61761;BME280;47664;51.660;-0.100;2023-04-07T04:53:47;101250.42;;;6.20;59.33
61761;BME280;47664;51.660;-0.100;2023-04-07T04:56:14;101258.34;;;5.52;58.95
61761;BME280;47664;51.660;-0.100;2023-04-07T04:58:41;101257.24;;;6.53;58.60
61761;BME280;47664;51.660;-0.100;2023-04-07T05:01:09;101259.94;;;6.15;57.82
61761;BME280;47664;51.660;-0.100;2023-04-07T05:03:36;101261.78;;;6.36;58.10
61761;BME280;47664;51.660;-0.100;2023-04-07T05:06:04;101258.02;;;6.54;58.53
61761;BME280;47664;51.660;-0.100;2023-04-07T05:08:32;101258.03;;;6.14;58.56
61761;BME280;47664;51.660;-0.100;2023-04-07T05:10:59;101263.11;;;6.24;58.76
61761;BME280;47664;51.660;-0.100;2023-04-07T05:13:26;101262.38;;;5.95;58.83
61761;BME280;47664;51.660;-0.100;2023-04-07T05:15:53;101262.83;;;6.47;58.63
61761;BME280;47664;51.660;-0.100;2023-04-07T05:18:20;101268.63;;;5.83;58.36
61761;BME280;47664;51.660;-0.100;2023-04-07T05:20:48;101270.87;;;6.29;58.44
61761;BME280;47664;51.660;-0.100;2023-04-07T05:23:16;101276.08;;;6.10;58.18
61761;BME280;47664;51.660;-0.100;2023-04-07T05:25:43;101277.40;;;6.79;57.41
61761;BME280;47664;51.660;-0.100;2023-04-07T05:28:11;101281.34;;;6.29;57.78
61761;BME280;47664;51.660;-0.100;2023-04-07T05:30:38;101283.47;;;6.54;58.11
61761;BME280;47664;51.660;-0.100;2023-04-07T05:33:06;101286.60;;;6.25;58.46
61761;BME280;47664;51.660;-0.100;2023-04-07T05:35:33;101288.42;;;6.50;58.30
61761;BME280;47664;51.660;-0.100;2023-04-07T05:38:00;101291.83;;;6.62;58.45
61761;BME280;47664;51.660;-0.100;2023-04-07T05:40:27;101294.48;;;6.16;58.54
61761;BME280;47664;51.660;-0.100;2023-04-07T05:42:55;101297.34;;;6.76;57.75
61761;BME280;47664;51.660;-0.100;2023-04-07T05:45:22;101298.81;;;6.21;58.05
61761;BME280;47664;51.660;-0.100;2023-04-07T05:47:49;101304.76;;;6.78;57.57
61761;BME280;47664;51.660;-0.100;2023-04-07T05:50:16;101302.88;;;6.02;57.40
61761;BME280;47664;51.660;-0.100;2023-04-07T05:52:44;101306.01;;;6.79;57.55
61761;BME280;47664;51.660;-0.100;2023-04-07T05:55:11;101307.40;;;6.27;57.15
61761;BME280;47664;51.660;-0.100;2023-04-07T05:57:38;101310.61;;;6.85;56.65
61761;BME280;47664;51.660;-0.100;2023-04-07T06:00:07;101320.22;;;6.92;56.46
61761;BME280;47664;51.660;-0.100;2023-04-07T06:02:34;101322.67;;;6.64;56.22
61761;BME280;47664;51.660;-0.100;2023-04-07T06:05:01;101327.13;;;6.92;56.21
61761;BME280;47664;51.660;-0.100;2023-04-07T06:07:28;101323.89;;;6.59;56.85
61761;BME280;47664;51.660;-0.100;2023-04-07T06:09:55;101328.04;;;6.63;56.82
61761;BME280;47664;51.660;-0.100;2023-04-07T06:12:22;101332.16;;;6.39;56.15
61761;BME280;47664;51.660;-0.100;2023-04-07T06:14:52;101334.66;;;7.06;55.07
61761;BME280;47664;51.660;-0.100;2023-04-07T06:17:20;101337.99;;;6.45;55.33
61761;BME280;47664;51.660;-0.100;2023-04-07T06:19:47;101340.14;;;7.13;55.92
61761;BME280;47664;51.660;-0.100;2023-04-07T06:22:14;101338.48;;;6.58;55.84
61761;BME280;47664;51.660;-0.100;2023-04-07T06:24:41;101334.92;;;6.96;56.22
61761;BME280;47664;51.660;-0.100;2023-04-07T06:27:09;101334.62;;;6.22;56.24
61761;BME280;47664;51.660;-0.100;2023-04-07T06:29:36;101332.45;;;6.80;56.50
61761;BME280;47664;51.660;-0.100;2023-04-07T06:32:04;101331.22;;;6.79;56.40
61761;BME280;47664;51.660;-0.100;2023-04-07T06:34:32;101333.65;;;6.44;56.12
61761;BME280;47664;51.660;-0.100;2023-04-07T06:36:59;101340.24;;;7.01;55.56
61761;BME280;47664;51.660;-0.100;2023-04-07T06:39:26;101341.98;;;7.24;55.23
61761;BME280;47664;51.660;-0.100;2023-04-07T06:41:53;101340.51;;;7.04;54.90
61761;BME280;47664;51.660;-0.100;2023-04-07T06:44:20;101343.63;;;7.17;54.60
61761;BME280;47664;51.660;-0.100;2023-04-07T06:46:47;101346.75;;;7.93;53.58
61761;BME280;47664;51.660;-0.100;2023-04-07T06:49:15;101354.68;;;7.08;53.24
61761;BME280;47664;51.660;-0.100;2023-04-07T06:51:42;101357.65;;;7.63;53.44
61761;BME280;47664;51.660;-0.100;2023-04-07T06:54:09;101358.20;;;7.32;53.32
61761;BME280;47664;51.660;-0.100;2023-04-07T06:56:37;101357.58;;;7.79;52.60
61761;BME280;47664;51.660;-0.100;2023-04-07T06:59:04;101357.08;;;7.90;52.91
61761;BME280;47664;51.660;-0.100;2023-04-07T07:01:32;101356.03;;;7.81;52.75
61761;BME280;47664;51.660;-0.100;2023-04-07T07:03:59;101357.36;;;7.85;52.12
61761;BME280;47664;51.660;-0.100;2023-04-07T07:06:26;101356.55;;;7.81;52.65
61761;BME280;47664;51.660;-0.100;2023-04-07T07:08:53;101358.73;;;8.25;52.16
61761;BME280;47664;51.660;-0.100;2023-04-07T07:11:20;101363.59;;;7.80;52.20
61761;BME280;47664;51.660;-0.100;2023-04-07T07:13:47;101364.92;;;7.66;52.44
61761;BME280;47664;51.660;-0.100;2023-04-07T07:16:15;101365.11;;;7.45;52.70
61761;BME280;47664;51.660;-0.100;2023-04-07T07:18:42;101362.60;;;8.51;51.52
61761;BME280;47664;51.660;-0.100;2023-04-07T07:21:09;101366.66;;;8.19;50.39
61761;BME280;47664;51.660;-0.100;2023-04-07T07:23:37;101369.42;;;8.96;50.17
61761;BME280;47664;51.660;-0.100;2023-04-07T07:26:04;101371.98;;;9.19;49.50
61761;BME280;47664;51.660;-0.100;2023-04-07T07:28:32;101371.75;;;9.39;49.40
61761;BME280;47664;51.660;-0.100;2023-04-07T07:30:59;101373.73;;;9.44;49.34
61761;BME280;47664;51.660;-0.100;2023-04-07T07:33:25;101375.28;;;9.26;48.95
61761;BME280;47664;51.660;-0.100;2023-04-07T07:35:52;101378.35;;;9.07;49.67
61761;BME280;47664;51.660;-0.100;2023-04-07T07:38:20;101381.05;;;8.84;49.51
61761;BME280;47664;51.660;-0.100;2023-04-07T07:40:47;101379.70;;;9.32;49.26
61761;BME280;47664;51.660;-0.100;2023-04-07T07:43:14;101384.63;;;8.80;49.86
61761;BME280;47664;51.660;-0.100;2023-04-07T07:45:41;101385.74;;;9.24;48.47
61761;BME280;47664;51.660;-0.100;2023-04-07T07:48:08;101386.74;;;8.07;50.49
61761;BME280;47664;51.660;-0.100;2023-04-07T07:50:36;101385.83;;;9.04;50.24
61761;BME280;47664;51.660;-0.100;2023-04-07T07:53:03;101393.53;;;8.46;50.97
61761;BME280;47664;51.660;-0.100;2023-04-07T07:55:30;101390.03;;;8.15;51.11
61761;BME280;47664;51.660;-0.100;2023-04-07T07:57:57;101390.05;;;8.68;51.25
61761;BME280;47664;51.660;-0.100;2023-04-07T08:00:24;101385.54;;;8.76;50.18
61761;BME280;47664;51.660;-0.100;2023-04-07T08:02:52;101389.46;;;8.93;49.93
61761;BME280;47664;51.660;-0.100;2023-04-07T08:05:19;101391.36;;;8.14;49.49
61761;BME280;47664;51.660;-0.100;2023-04-07T08:07:46;101389.28;;;8.99;49.56
61761;BME280;47664;51.660;-0.100;2023-04-07T08:10:14;101389.43;;;8.41;49.83
61761;BME280;47664;51.660;-0.100;2023-04-07T08:12:41;101391.97;;;8.94;49.82
61761;BME280;47664;51.660;-0.100;2023-04-07T08:15:09;101394.80;;;8.61;50.06
61761;BME280;47664;51.660;-0.100;2023-04-07T08:17:36;101397.04;;;8.63;49.86
61761;BME280;47664;51.660;-0.100;2023-04-07T08:20:05;101401.13;;;8.48;50.76
61761;BME280;47664;51.660;-0.100;2023-04-07T08:22:33;101404.01;;;8.90;51.27
61761;BME280;47664;51.660;-0.100;2023-04-07T08:25:00;101403.55;;;9.14;51.13
61761;BME280;47664;51.660;-0.100;2023-04-07T08:27:27;101401.88;;;8.89;49.91
61761;BME280;47664;51.660;-0.100;2023-04-07T08:29:59;101403.21;;;10.02;48.79
61761;BME280;47664;51.660;-0.100;2023-04-07T08:32:35;101403.02;;;10.20;47.74
61761;BME280;47664;51.660;-0.100;2023-04-07T08:35:04;101407.17;;;10.01;48.17
61761;BME280;47664;51.660;-0.100;2023-04-07T08:37:31;101406.11;;;9.29;48.87
61761;BME280;47664;51.660;-0.100;2023-04-07T08:39:59;101408.97;;;9.97;47.72
61761;BME280;47664;51.660;-0.100;2023-04-07T08:42:29;101412.28;;;10.47;47.01
61761;BME280;47664;51.660;-0.100;2023-04-07T08:44:58;101413.40;;;10.68;47.63
61761;BME280;47664;51.660;-0.100;2023-04-07T08:47:30;101414.00;;;10.47;47.22
61761;BME280;47664;51.660;-0.100;2023-04-07T08:50:01;101417.26;;;10.11;47.69
61761;BME280;47664;51.660;-0.100;2023-04-07T08:52:32;101421.72;;;9.84;48.49
61761;BME280;47664;51.660;-0.100;2023-04-07T08:55:00;101423.05;;;10.03;47.67
61761;BME280;47664;51.660;-0.100;2023-04-07T08:57:28;101427.46;;;10.19;46.94
61761;BME280;47664;51.660;-0.100;2023-04-07T08:59:58;101426.82;;;10.36;47.34
61761;BME280;47664;51.660;-0.100;2023-04-07T09:02:26;101428.46;;;9.89;47.59
61761;BME280;47664;51.660;-0.100;2023-04-07T09:04:53;101425.71;;;10.49;47.46
61761;BME280;47664;51.660;-0.100;2023-04-07T09:07:20;101431.29;;;10.12;47.03
61761;BME280;47664;51.660;-0.100;2023-04-07T09:09:47;101425.57;;;10.48;46.75
61761;BME280;47664;51.660;-0.100;2023-04-07T09:12:14;101427.58;;;10.19;46.78
61761;BME280;47664;51.660;-0.100;2023-04-07T09:14:42;101430.88;;;11.14;46.24
61761;BME280;47664;51.660;-0.100;2023-04-07T09:17:09;101428.52;;;11.05;45.30
61761;BME280;47664;51.660;-0.100;2023-04-07T09:19:36;101429.43;;;11.41;46.02
61761;BME280;47664;51.660;-0.100;2023-04-07T09:22:03;101424.09;;;11.67;45.88
61761;BME280;47664;51.660;-0.100;2023-04-07T09:24:31;101425.93;;;10.32;46.44
61761;BME280;47664;51.660;-0.100;2023-04-07T09:27:15;101424.63;;;10.54;47.14
61761;BME280;47664;51.660;-0.100;2023-04-07T09:29:44;101428.03;;;10.45;48.18
61761;BME280;47664;51.660;-0.100;2023-04-07T09:32:12;101424.91;;;10.67;46.17
61761;BME280;47664;51.660;-0.100;2023-04-07T09:34:57;101426.12;;;11.84;45.42
61761;BME280;47664;51.660;-0.100;2023-04-07T09:37:24;101425.52;;;10.65;46.74
61761;BME280;47664;51.660;-0.100;2023-04-07T09:39:52;101428.24;;;11.45;45.82
61761;BME280;47664;51.660;-0.100;2023-04-07T09:42:19;101424.90;;;10.70;44.96
61761;BME280;47664;51.660;-0.100;2023-04-07T09:44:46;101424.03;;;11.59;45.31
61761;BME280;47664;51.660;-0.100;2023-04-07T09:47:14;101420.22;;;11.55;45.06
61761;BME280;47664;51.660;-0.100;2023-04-07T09:49:50;101419.63;;;11.42;45.58
61761;BME280;47664;51.660;-0.100;2023-04-07T09:52:18;101419.97;;;11.10;44.90
61761;BME280;47664;51.660;-0.100;2023-04-07T09:54:46;101420.41;;;11.02;45.55
61761;BME280;47664;51.660;-0.100;2023-04-07T09:57:14;101420.30;;;10.23;46.31
61761;BME280;47664;51.660;-0.100;2023-04-07T09:59:43;101418.56;;;11.09;46.27
61761;BME280;47664;51.660;-0.100;2023-04-07T10:02:11;101417.86;;;10.64;45.92
61761;BME280;47664;51.660;-0.100;2023-04-07T10:04:38;101424.49;;;11.53;46.12
61761;BME280;47664;51.660;-0.100;2023-04-07T10:07:06;101421.16;;;11.57;45.38
61761;BME280;47664;51.660;-0.100;2023-04-07T10:09:33;101423.79;;;11.86;44.89
61761;BME280;47664;51.660;-0.100;2023-04-07T10:12:01;101424.93;;;12.09;45.13
61761;BME280;47664;51.660;-0.100;2023-04-07T10:14:31;101421.93;;;11.74;45.23
61761;BME280;47664;51.660;-0.100;2023-04-07T10:16:59;101422.20;;;11.89;45.98
61761;BME280;47664;51.660;-0.100;2023-04-07T10:19:29;101420.40;;;11.14;46.33
61761;BME280;47664;51.660;-0.100;2023-04-07T10:21:57;101420.12;;;11.03;47.10
61761;BME280;47664;51.660;-0.100;2023-04-07T10:24:36;101411.95;;;10.94;47.24
61761;BME280;47664;51.660;-0.100;2023-04-07T10:27:12;101414.88;;;11.12;46.27
61761;BME280;47664;51.660;-0.100;2023-04-07T10:29:41;101419.04;;;11.77;45.46
61761;BME280;47664;51.660;-0.100;2023-04-07T10:32:10;101422.37;;;11.82;44.32
61761;BME280;47664;51.660;-0.100;2023-04-07T10:35:10;101422.42;;;12.32;43.47
61761;BME280;47664;51.660;-0.100;2023-04-07T10:37:37;101415.44;;;12.67;42.64
61761;BME280;47664;51.660;-0.100;2023-04-07T10:40:37;101419.08;;;12.95;42.21
61761;BME280;47664;51.660;-0.100;2023-04-07T10:43:05;101420.01;;;12.86;42.71
61761;BME280;47664;51.660;-0.100;2023-04-07T10:46:06;101417.24;;;12.86;42.15
61761;BME280;47664;51.660;-0.100;2023-04-07T10:48:33;101416.67;;;12.72;42.26
61761;BME280;47664;51.660;-0.100;2023-04-07T10:51:13;101420.62;;;11.81;44.60
61761;BME280;47664;51.660;-0.100;2023-04-07T10:54:15;101418.49;;;11.23;44.51
61761;BME280;47664;51.660;-0.100;2023-04-07T10:57:15;101417.74;;;11.06;45.77
61761;BME280;47664;51.660;-0.100;2023-04-07T11:00:14;101419.16;;;11.77;44.73
61761;BME280;47664;51.660;-0.100;2023-04-07T11:02:41;101418.61;;;11.84;43.55
61761;BME280;47664;51.660;-0.100;2023-04-07T11:05:19;101416.20;;;11.74;42.69
61761;BME280;47664;51.660;-0.100;2023-04-07T11:07:49;101414.24;;;12.72;42.54
61761;BME280;47664;51.660;-0.100;2023-04-07T11:10:17;101409.85;;;11.99;42.10
61761;BME280;47664;51.660;-0.100;2023-04-07T11:12:59;101407.09;;;13.52;41.13
61761;BME280;47664;51.660;-0.100;2023-04-07T11:15:26;101412.77;;;12.42;39.94
61761;BME280;47664;51.660;-0.100;2023-04-07T11:18:25;101417.50;;;12.25;42.14
61761;BME280;47664;51.660;-0.100;2023-04-07T11:20:55;101412.57;;;12.45;41.12
61761;BME280;47664;51.660;-0.100;2023-04-07T11:23:23;101413.08;;;12.02;40.42
61761;BME280;47664;51.660;-0.100;2023-04-07T11:25:58;101410.41;;;12.15;41.41
61761;BME280;47664;51.660;-0.100;2023-04-07T11:28:25;101415.12;;;12.32;40.87
61761;BME280;47664;51.660;-0.100;2023-04-07T11:30:53;101408.59;;;12.81;39.57
61761;BME280;47664;51.660;-0.100;2023-04-07T11:33:22;101415.08;;;13.06;40.00
61761;BME280;47664;51.660;-0.100;2023-04-07T11:35:51;101419.54;;;13.00;38.73
61761;BME280;47664;51.660;-0.100;2023-04-07T11:38:19;101416.42;;;11.90;38.74
61761;BME280;47664;51.660;-0.100;2023-04-07T11:40:46;101414.83;;;12.34;40.00
61761;BME280;47664;51.660;-0.100;2023-04-07T11:43:18;101413.94;;;12.10;38.41
61761;BME280;47664;51.660;-0.100;2023-04-07T11:45:47;101414.73;;;12.74;37.68
61761;BME280;47664;51.660;-0.100;2023-04-07T11:48:30;101417.48;;;12.81;37.34
61761;BME280;47664;51.660;-0.100;2023-04-07T11:50:58;101414.96;;;12.70;38.51
61761;BME280;47664;51.660;-0.100;2023-04-07T11:53:27;101418.52;;;12.48;39.03
61761;BME280;47664;51.660;-0.100;2023-04-07T11:56:03;101419.00;;;12.19;40.45
61761;BME280;47664;51.660;-0.100;2023-04-07T11:58:31;101421.36;;;11.82;40.57
61761;BME280;47664;51.660;-0.100;2023-04-07T12:01:01;101418.58;;;11.91;41.67
61761;BME280;47664;51.660;-0.100;2023-04-07T12:03:29;101419.85;;;11.62;40.34
61761;BME280;47664;51.660;-0.100;2023-04-07T12:05:55;101426.40;;;12.17;40.20
61761;BME280;47664;51.660;-0.100;2023-04-07T12:08:37;101420.55;;;12.35;39.45
61761;BME280;47664;51.660;-0.100;2023-04-07T12:11:05;101417.24;;;13.68;37.41
61761;BME280;47664;51.660;-0.100;2023-04-07T12:13:32;101422.08;;;13.58;36.38
61761;BME280;47664;51.660;-0.100;2023-04-07T12:15:59;101425.74;;;13.75;37.02
61761;BME280;47664;51.660;-0.100;2023-04-07T12:18:27;101427.07;;;13.25;37.55
61761;BME280;47664;51.660;-0.100;2023-04-07T12:20:55;101430.01;;;13.37;35.70
61761;BME280;47664;51.660;-0.100;2023-04-07T12:23:22;101429.23;;;13.82;35.38
61761;BME280;47664;51.660;-0.100;2023-04-07T12:25:49;101430.09;;;13.01;36.44
61761;BME280;47664;51.660;-0.100;2023-04-07T12:28:16;101429.71;;;12.08;37.24
61761;BME280;47664;51.660;-0.100;2023-04-07T12:30:44;101422.74;;;12.89;37.15
61761;BME280;47664;51.660;-0.100;2023-04-07T12:33:11;101429.76;;;12.48;37.60
61761;BME280;47664;51.660;-0.100;2023-04-07T12:35:38;101431.85;;;12.55;37.07
61761;BME280;47664;51.660;-0.100;2023-04-07T12:38:06;101432.11;;;12.16;37.38
61761;BME280;47664;51.660;-0.100;2023-04-07T12:40:33;101431.47;;;12.21;38.24
61761;BME280;47664;51.660;-0.100;2023-04-07T12:43:00;101430.06;;;12.80;36.14
61761;BME280;47664;51.660;-0.100;2023-04-07T12:45:27;101424.35;;;12.81;36.33
61761;BME280;47664;51.660;-0.100;2023-04-07T12:47:54;101424.38;;;14.03;35.52
61761;BME280;47664;51.660;-0.100;2023-04-07T12:50:21;101426.01;;;13.16;35.12
61761;BME280;47664;51.660;-0.100;2023-04-07T12:52:48;101426.81;;;13.76;33.96
61761;BME280;47664;51.660;-0.100;2023-04-07T12:55:15;101427.66;;;14.07;33.69
61761;BME280;47664;51.660;-0.100;2023-04-07T12:57:41;101424.60;;;13.54;34.33